sensor_id;sensor_type;location;lat;lon;timestamp;pressure;altitude;pressure_sealevel;temperature;humidity
44131;BME280;29792;48.726;9.248;2023-08-01T00:01:26;95973.34;;;18.55;100.00
44131;BME280;29792;48.726;9.248;2023-08-01T00:03:51;95972.56;;;18.54;100.00
44131;BME280;29792;48.726;9.248;2023-08-01T00:06:16;95963.78;;;18.55;100.00
44131;BME280;29792;48.726;9.248;2023-08-01T00:08:42;95963.97;;;18.54;100.00
44131;BME280;29792;48.726;9.248;2023-08-01T00:11:07;95956.78;;;18.56;100.00
44131;BME280;29792;48.726;9.248;2023-08-01T00:13:34;95954.19;;;18.56;99.93
44131;BME280;29792;48.726;9.248;2023-08-01T00:15:59;95958.41;;;18.57;100.00
44131;BME280;29792;48.726;9.248;2023-08-01T00:18:25;95951.41;;;18.57;100.00
44131;BME280;29792;48.726;9.248;2023-08-01T00:20:52;95936.66;;;18.58;100.00
44131;BME280;29792;48.726;9.248;2023-08-01T00:23:18;95927.28;;;18.57;99.74
44131;BME280;29792;48.726;9.248;2023-08-01T00:25:44;95920.28;;;18.57;99.81
44131;BME280;29792;48.726;9.248;2023-08-01T00:28:09;95917.50;;;18.59;99.66
44131;BME280;29792;48.726;9.248;2023-08-01T00:30:34;95926.69;;;18.61;99.73
44131;BME280;29792;48.726;9.248;2023-08-01T00:33:00;95923.91;;;18.63;99.51
44131;BME280;29792;48.726;9.248;2023-08-01T00:35:25;95916.69;;;18.65;99.47
44131;BME280;29792;48.726;9.248;2023-08-01T00:37:50;95911.50;;;18.65;99.37
44131;BME280;29792;48.726;9.248;2023-08-01T00:40:16;95909.50;;;18.67;99.12
44131;BME280;29792;48.726;9.248;2023-08-01T00:42:42;95904.31;;;18.67;99.27
44131;BME280;29792;48.726;9.248;2023-08-01T00:45:08;95904.31;;;18.67;98.89
44131;BME280;29792;48.726;9.248;2023-08-01T00:47:34;95900.75;;;18.68;98.85
44131;BME280;29792;48.726;9.248;2023-08-01T00:50:00;95898.16;;;18.68;98.64
44131;BME280;29792;48.726;9.248;2023-08-01T00:52:26;95902.34;;;18.69;99.02
44131;BME280;29792;48.726;9.248;2023-08-01T00:54:51;95889.16;;;18.71;98.50
44131;BME280;29792;48.726;9.248;2023-08-01T00:57:17;95888.19;;;18.72;98.61
44131;BME280;29792;48.726;9.248;2023-08-01T00:59:42;95871.81;;;18.71;98.54
44131;BME280;29792;48.726;9.248;2023-08-01T01:02:07;95875.19;;;18.72;98.27
44131;BME280;29792;48.726;9.248;2023-08-01T01:04:33;95870.00;;;18.72;98.54
44131;BME280;29792;48.726;9.248;2023-08-01T01:07:02;95870.00;;;18.72;98.11
44131;BME280;29792;48.726;9.248;2023-08-01T01:09:29;95865.63;;;18.72;98.27
44131;BME280;29792;48.726;9.248;2023-08-01T01:11:57;95855.81;;;18.74;98.35
44131;BME280;29792;48.726;9.248;2023-08-01T01:14:22;95868.59;;;18.76;98.37
44131;BME280;29792;48.726;9.248;2023-08-01T01:16:47;95865.19;;;18.75;98.00
44131;BME280;29792;48.726;9.248;2023-08-01T01:19:12;95868.41;;;18.77;98.05
44131;BME280;29792;48.726;9.248;2023-08-01T01:21:39;95860.81;;;18.76;98.08
44131;BME280;29792;48.726;9.248;2023-08-01T01:24:08;95865.19;;;18.75;97.92
44131;BME280;29792;48.726;9.248;2023-08-01T01:26:35;95851.84;;;18.72;97.80
44131;BME280;29792;48.726;9.248;2023-08-01T01:29:03;95839.28;;;18.68;98.24
44131;BME280;29792;48.726;9.248;2023-08-01T01:31:30;95846.44;;;18.66;97.22
44131;BME280;29792;48.726;9.248;2023-08-01T01:33:56;95845.06;;;18.64;97.69
44131;BME280;29792;48.726;9.248;2023-08-01T01:36:22;95812.34;;;18.63;97.83
44131;BME280;29792;48.726;9.248;2023-08-01T01:38:47;95817.53;;;18.63;98.17
44131;BME280;29792;48.726;9.248;2023-08-01T01:41:13;95804.97;;;18.60;98.79
44131;BME280;29792;48.726;9.248;2023-08-01T01:43:38;95815.72;;;18.57;98.98
44131;BME280;29792;48.726;9.248;2023-08-01T01:46:03;95805.75;;;18.54;99.24
44131;BME280;29792;48.726;9.248;2023-08-01T01:48:29;95800.75;;;18.52;99.27
44131;BME280;29792;48.726;9.248;2023-08-01T01:50:54;95790.56;;;18.51;99.92
44131;BME280;29792;48.726;9.248;2023-08-01T01:53:19;95785.00;;;18.47;99.88
44131;BME280;29792;48.726;9.248;2023-08-01T01:55:44;95789.78;;;18.44;100.00
44131;BME280;29792;48.726;9.248;2023-08-01T01:58:10;95783.81;;;18.43;100.00
44131;BME280;29792;48.726;9.248;2023-08-01T02:00:35;95781.41;;;18.42;100.00
44131;BME280;29792;48.726;9.248;2023-08-01T02:03:00;95773.84;;;18.40;100.00
44131;BME280;29792;48.726;9.248;2023-08-01T02:05:28;95770.47;;;18.40;100.00
44131;BME280;29792;48.726;9.248;2023-08-01T02:07:53;95763.25;;;18.42;100.00
44131;BME280;29792;48.726;9.248;2023-08-01T02:10:18;95767.88;;;18.40;100.00
44131;BME280;29792;48.726;9.248;2023-08-01T02:12:44;95770.47;;;18.40;100.00
44131;BME280;29792;48.726;9.248;2023-08-01T02:15:09;95770.47;;;18.40;100.00
44131;BME280;29792;48.726;9.248;2023-08-01T02:17:34;95776.66;;;18.39;100.00
44131;BME280;29792;48.726;9.248;2023-08-01T02:20:00;95764.66;;;18.38;100.00
44131;BME280;29792;48.726;9.248;2023-08-01T02:22:25;95760.09;;;18.40;100.00
44131;BME280;29792;48.726;9.248;2023-08-01T02:24:51;95753.88;;;18.41;100.00
44131;BME280;29792;48.726;9.248;2023-08-01T02:27:16;95756.47;;;18.41;100.00
44131;BME280;29792;48.726;9.248;2023-08-01T02:29:42;95760.09;;;18.40;100.00
44131;BME280;29792;48.726;9.248;2023-08-01T02:32:07;95753.09;;;18.40;100.00
44131;BME280;29792;48.726;9.248;2023-08-01T02:34:33;95768.66;;;18.40;100.00
44131;BME280;29792;48.726;9.248;2023-08-01T02:36:58;95770.47;;;18.40;100.00
44131;BME280;29792;48.726;9.248;2023-08-01T02:39:23;95766.28;;;18.39;100.00
44131;BME280;29792;48.726;9.248;2023-08-01T02:41:49;95767.88;;;18.40;100.00
44131;BME280;29792;48.726;9.248;2023-08-01T02:44:14;95766.47;;;18.37;100.00
44131;BME280;29792;48.726;9.248;2023-08-01T02:46:39;95762.28;;;18.36;100.00
44131;BME280;29792;48.726;9.248;2023-08-01T02:49:04;95768.25;;;18.37;100.00
44131;BME280;29792;48.726;9.248;2023-08-01T02:51:30;95771.66;;;18.37;100.00
44131;BME280;29792;48.726;9.248;2023-08-01T02:53:55;95765.66;;;18.37;100.00
44131;BME280;29792;48.726;9.248;2023-08-01T02:56:20;95764.66;;;18.38;100.00
44131;BME280;29792;48.726;9.248;2023-08-01T02:58:45;95753.88;;;18.41;100.00
44131;BME280;29792;48.726;9.248;2023-08-01T03:01:11;95759.06;;;18.41;100.00
44131;BME280;29792;48.726;9.248;2023-08-01T03:03:37;95754.31;;;18.38;100.00
44131;BME280;29792;48.726;9.248;2023-08-01T03:06:02;95759.50;;;18.38;100.00
44131;BME280;29792;48.726;9.248;2023-08-01T03:08:28;95756.09;;;18.37;100.00
44131;BME280;29792;48.726;9.248;2023-08-01T03:10:54;95755.28;;;18.37;100.00
44131;BME280;29792;48.726;9.248;2023-08-01T03:13:19;95752.69;;;18.37;100.00
44131;BME280;29792;48.726;9.248;2023-08-01T03:15:45;95754.09;;;18.39;100.00
44131;BME280;29792;48.726;9.248;2023-08-01T03:18:10;95742.94;;;18.39;100.00
44131;BME280;29792;48.726;9.248;2023-08-01T03:20:35;95752.31;;;18.40;100.00
44131;BME280;29792;48.726;9.248;2023-08-01T03:23:01;95738.53;;;18.39;100.00
44131;BME280;29792;48.726;9.248;2023-08-01T03:25:26;95732.13;;;18.42;100.00
44131;BME280;29792;48.726;9.248;2023-08-01T03:27:52;95730.34;;;18.42;100.00
44131;BME280;29792;48.726;9.248;2023-08-01T03:30:17;95725.94;;;18.43;100.00
44131;BME280;29792;48.726;9.248;2023-08-01T03:32:42;95724.97;;;18.44;100.00
44131;BME280;29792;48.726;9.248;2023-08-01T03:35:08;95731.53;;;18.46;100.00
44131;BME280;29792;48.726;9.248;2023-08-01T03:37:33;95730.31;;;18.49;100.00
44131;BME280;29792;48.726;9.248;2023-08-01T03:39:58;95731.91;;;18.50;100.00
44131;BME280;29792;48.726;9.248;2023-08-01T03:42:24;95733.31;;;18.52;100.00
44131;BME280;29792;48.726;9.248;2023-08-01T03:44:49;95729.53;;;18.55;100.00
44131;BME280;29792;48.726;9.248;2023-08-01T03:47:14;95743.91;;;18.57;100.00
44131;BME280;29792;48.726;9.248;2023-08-01T03:49:39;95745.50;;;18.58;100.00
44131;BME280;29792;48.726;9.248;2023-08-01T03:52:05;95740.72;;;18.62;99.76
44131;BME280;29792;48.726;9.248;2023-08-01T03:54:31;95748.06;;;18.65;99.67
44131;BME280;29792;48.726;9.248;2023-08-01T03:56:56;95750.25;;;18.68;99.45
44131;BME280;29792;48.726;9.248;2023-08-01T03:59:21;95749.06;;;18.71;98.54
44131;BME280;29792;48.726;9.248;2023-08-01T04:01:47;95753.03;;;18.73;98.99
44131;BME280;29792;48.726;9.248;2023-08-01T04:04:12;95757.03;;;18.76;98.68
44131;BME280;29792;48.726;9.248;2023-08-01T04:06:37;95758.44;;;18.78;98.76
44131;BME280;29792;48.726;9.248;2023-08-01T04:09:03;95745.25;;;18.80;98.73
44131;BME280;29792;48.726;9.248;2023-08-01T04:11:28;95756.19;;;18.82;98.52
44131;BME280;29792;48.726;9.248;2023-08-01T04:13:55;95736.84;;;18.84;98.25
44131;BME280;29792;48.726;9.248;2023-08-01T04:16:20;95726.25;;;18.86;98.01
44131;BME280;29792;48.726;9.248;2023-08-01T04:18:46;95707.09;;;18.87;97.86
44131;BME280;29792;48.726;9.248;2023-08-01T04:21:13;95675.94;;;18.87;97.67
44131;BME280;29792;48.726;9.248;2023-08-01T04:23:39;95672.34;;;18.88;97.57
44131;BME280;29792;48.726;9.248;2023-08-01T04:26:04;95668.16;;;18.87;97.52
44131;BME280;29792;48.726;9.248;2023-08-01T04:28:31;95653.41;;;18.87;97.51
44131;BME280;29792;48.726;9.248;2023-08-01T04:30:57;95643.00;;;18.87;96.95
44131;BME280;29792;48.726;9.248;2023-08-01T04:33:22;95638.38;;;18.89;97.29
44131;BME280;29792;48.726;9.248;2023-08-01T04:35:47;95606.47;;;18.89;97.07
44131;BME280;29792;48.726;9.248;2023-08-01T04:38:14;95601.50;;;18.87;96.83
44131;BME280;29792;48.726;9.248;2023-08-01T04:40:39;95567.56;;;18.89;96.73
44131;BME280;29792;48.726;9.248;2023-08-01T04:43:04;95545.19;;;18.88;96.36
44131;BME280;29792;48.726;9.248;2023-08-01T04:45:30;95538.41;;;18.87;96.25
44131;BME280;29792;48.726;9.248;2023-08-01T04:47:55;95539.78;;;18.89;95.90
44131;BME280;29792;48.726;9.248;2023-08-01T04:50:20;95487.09;;;18.89;95.14
44131;BME280;29792;48.726;9.248;2023-08-01T04:52:46;95504.25;;;18.90;95.15
44131;BME280;29792;48.726;9.248;2023-08-01T04:55:11;95560.91;;;18.93;94.85
44131;BME280;29792;48.726;9.248;2023-08-01T04:57:36;95557.31;;;18.94;94.46
44131;BME280;29792;48.726;9.248;2023-08-01T05:00:02;95571.69;;;18.96;93.96
44131;BME280;29792;48.726;9.248;2023-08-01T05:02:28;95561.06;;;18.98;93.92
44131;BME280;29792;48.726;9.248;2023-08-01T05:04:53;95570.25;;;19.00;93.43
44131;BME280;29792;48.726;9.248;2023-08-01T05:07:18;95578.44;;;19.04;93.66
44131;BME280;29792;48.726;9.248;2023-08-01T05:09:44;95578.97;;;19.06;93.05
44131;BME280;29792;48.726;9.248;2023-08-01T05:12:09;95582.75;;;19.10;92.82
44131;BME280;29792;48.726;9.248;2023-08-01T05:14:34;95598.94;;;19.12;92.93
44131;BME280;29792;48.726;9.248;2023-08-01T05:17:00;95593.50;;;19.14;92.56
44131;BME280;29792;48.726;9.248;2023-08-01T05:19:25;95613.06;;;19.16;92.27
44131;BME280;29792;48.726;9.248;2023-08-01T05:21:50;95625.66;;;19.19;92.34
44131;BME280;29792;48.726;9.248;2023-08-01T05:24:16;95609.84;;;19.21;92.13
44131;BME280;29792;48.726;9.248;2023-08-01T05:26:41;95608.81;;;19.22;91.21
44131;BME280;29792;48.726;9.248;2023-08-01T05:29:06;95596.44;;;19.24;90.97
44131;BME280;29792;48.726;9.248;2023-08-01T05:31:32;95609.00;;;19.27;90.22
44131;BME280;29792;48.726;9.248;2023-08-01T05:33:57;95625.19;;;19.29;90.10
44131;BME280;29792;48.726;9.248;2023-08-01T05:36:22;95642.13;;;19.31;90.25
44131;BME280;29792;48.726;9.248;2023-08-01T05:38:47;95654.09;;;19.32;90.19
44131;BME280;29792;48.726;9.248;2023-08-01T05:41:13;95647.31;;;19.31;89.43
44131;BME280;29792;48.726;9.248;2023-08-01T05:43:38;95640.31;;;19.32;89.27
44131;BME280;29792;48.726;9.248;2023-08-01T05:46:03;95636.94;;;19.31;89.44
44131;BME280;29792;48.726;9.248;2023-08-01T05:48:28;95622.94;;;19.32;88.74
44131;BME280;29792;48.726;9.248;2023-08-01T05:50:54;95625.31;;;19.34;88.25
44131;BME280;29792;48.726;9.248;2023-08-01T05:53:21;95626.94;;;19.35;88.42
44131;BME280;29792;48.726;9.248;2023-08-01T05:55:46;95630.13;;;19.37;87.57
44131;BME280;29792;48.726;9.248;2023-08-01T05:58:12;95636.88;;;19.38;87.55
44131;BME280;29792;48.726;9.248;2023-08-01T06:00:37;95634.88;;;19.40;87.47
44131;BME280;29792;48.726;9.248;2023-08-01T06:03:02;95638.25;;;19.40;86.67
44131;BME280;29792;48.726;9.248;2023-08-01T06:05:28;95638.06;;;19.42;86.49
44131;BME280;29792;48.726;9.248;2023-08-01T06:07:53;95640.44;;;19.43;86.66
44131;BME280;29792;48.726;9.248;2023-08-01T06:10:18;95654.22;;;19.44;85.89
44131;BME280;29792;48.726;9.248;2023-08-01T06:12:44;95648.03;;;19.45;85.42
44131;BME280;29792;48.726;9.248;2023-08-01T06:15:09;95644.41;;;19.46;85.06
44131;BME280;29792;48.726;9.248;2023-08-01T06:17:35;95650.81;;;19.50;85.21
44131;BME280;29792;48.726;9.248;2023-08-01T06:20:00;95652.41;;;19.51;85.10
44131;BME280;29792;48.726;9.248;2023-08-01T06:22:28;95651.59;;;19.51;85.25
44131;BME280;29792;48.726;9.248;2023-08-01T06:24:54;95650.81;;;19.50;85.42
44131;BME280;29792;48.726;9.248;2023-08-01T06:27:19;95650.00;;;19.50;85.82
44131;BME280;29792;48.726;9.248;2023-08-01T06:29:44;95653.63;;;19.49;86.12
44131;BME280;29792;48.726;9.248;2023-08-01T06:32:09;95641.03;;;19.46;86.27
44131;BME280;29792;48.726;9.248;2023-08-01T06:34:35;95644.84;;;19.43;86.19
44131;BME280;29792;48.726;9.248;2023-08-01T06:37:00;95662.06;;;19.37;87.11
44131;BME280;29792;48.726;9.248;2023-08-01T06:39:25;95666.88;;;19.34;86.30
44131;BME280;29792;48.726;9.248;2023-08-01T06:41:51;95668.09;;;19.31;87.17
44131;BME280;29792;48.726;9.248;2023-08-01T06:44:16;95660.94;;;19.27;87.10
44131;BME280;29792;48.726;9.248;2023-08-01T06:46:41;95662.34;;;19.23;86.96
44131;BME280;29792;48.726;9.248;2023-08-01T06:49:06;95663.78;;;19.19;87.44
44131;BME280;29792;48.726;9.248;2023-08-01T06:51:32;95665.00;;;19.16;87.65
44131;BME280;29792;48.726;9.248;2023-08-01T06:53:57;95684.38;;;19.14;87.48
44131;BME280;29792;48.726;9.248;2023-08-01T06:56:22;95679.81;;;19.09;87.53
44131;BME280;29792;48.726;9.248;2023-08-01T06:58:47;95683.63;;;19.06;89.01
44131;BME280;29792;48.726;9.248;2023-08-01T07:01:13;95668.69;;;19.02;89.96
44131;BME280;29792;48.726;9.248;2023-08-01T07:03:38;95662.31;;;18.98;90.64
44131;BME280;29792;48.726;9.248;2023-08-01T07:06:03;95654.56;;;18.91;91.69
44131;BME280;29792;48.726;9.248;2023-08-01T07:08:28;95650.78;;;18.87;91.71
44131;BME280;29792;48.726;9.248;2023-08-01T07:10:53;95653.44;;;18.81;92.41
44131;BME280;29792;48.726;9.248;2023-08-01T07:13:19;95666.00;;;18.77;92.69
44131;BME280;29792;48.726;9.248;2023-08-01T07:15:44;95666.41;;;18.74;93.90
44131;BME280;29792;48.726;9.248;2023-08-01T07:18:10;95664.66;;;18.68;93.67
44131;BME280;29792;48.726;9.248;2023-08-01T07:20:35;95663.47;;;18.64;93.65
44131;BME280;29792;48.726;9.248;2023-08-01T07:23:00;95663.50;;;18.57;93.27
44131;BME280;29792;48.726;9.248;2023-08-01T07:25:25;95665.69;;;18.54;93.41
44131;BME280;29792;48.726;9.248;2023-08-01T07:27:51;95660.69;;;18.52;93.08
44131;BME280;29792;48.726;9.248;2023-08-01T07:30:16;95669.66;;;18.50;93.65
44131;BME280;29792;48.726;9.248;2023-08-01T07:32:41;95683.25;;;18.45;94.38
44131;BME280;29792;48.726;9.248;2023-08-01T07:35:08;95678.91;;;18.39;93.49
44131;BME280;29792;48.726;9.248;2023-08-01T07:37:33;95688.06;;;18.35;94.01
44131;BME280;29792;48.726;9.248;2023-08-01T07:39:59;95687.47;;;18.33;94.32
44131;BME280;29792;48.726;9.248;2023-08-01T07:42:24;95692.88;;;18.32;94.86
44131;BME280;29792;48.726;9.248;2023-08-01T07:44:49;95689.88;;;18.28;94.95
44131;BME280;29792;48.726;9.248;2023-08-01T07:47:15;95703.25;;;18.25;95.50
44131;BME280;29792;48.726;9.248;2023-08-01T07:49:40;95709.66;;;18.22;95.86
44131;BME280;29792;48.726;9.248;2023-08-01T07:52:06;95717.63;;;18.21;96.80
44131;BME280;29792;48.726;9.248;2023-08-01T07:54:32;95724.19;;;18.17;97.57
44131;BME280;29792;48.726;9.248;2023-08-01T07:56:57;95727.22;;;18.14;98.63
44131;BME280;29792;48.726;9.248;2023-08-01T07:59:22;95714.03;;;18.09;99.06
44131;BME280;29792;48.726;9.248;2023-08-01T08:01:48;95706.88;;;18.04;99.98
44131;BME280;29792;48.726;9.248;2023-08-01T08:04:13;95707.69;;;17.98;100.00
44131;BME280;29792;48.726;9.248;2023-08-01T08:06:39;95705.69;;;17.93;100.00
44131;BME280;29792;48.726;9.248;2023-08-01T08:09:05;95713.47;;;17.87;100.00
44131;BME280;29792;48.726;9.248;2023-08-01T08:11:30;95706.50;;;17.81;100.00
44131;BME280;29792;48.726;9.248;2023-08-01T08:13:55;95700.13;;;17.77;100.00
44131;BME280;29792;48.726;9.248;2023-08-01T08:16:21;95685.97;;;17.73;100.00
44131;BME280;29792;48.726;9.248;2023-08-01T08:18:46;95696.13;;;17.68;100.00
44131;BME280;29792;48.726;9.248;2023-08-01T08:21:11;95686.38;;;17.63;100.00
44131;BME280;29792;48.726;9.248;2023-08-01T08:23:37;95695.28;;;17.61;100.00
44131;BME280;29792;48.726;9.248;2023-08-01T08:26:03;95682.97;;;17.56;100.00
44131;BME280;29792;48.726;9.248;2023-08-01T08:28:31;95683.53;;;17.51;100.00
44131;BME280;29792;48.726;9.248;2023-08-01T08:30:58;95685.75;;;17.48;100.00
44131;BME280;29792;48.726;9.248;2023-08-01T08:33:23;95684.53;;;17.44;100.00
44131;BME280;29792;48.726;9.248;2023-08-01T08:35:49;95689.94;;;17.42;100.00
44131;BME280;29792;48.726;9.248;2023-08-01T08:38:14;95678.78;;;17.42;100.00
44131;BME280;29792;48.726;9.248;2023-08-01T08:40:40;95685.75;;;17.41;100.00
44131;BME280;29792;48.726;9.248;2023-08-01T08:43:07;95689.13;;;17.42;100.00
44131;BME280;29792;48.726;9.248;2023-08-01T08:45:34;95681.94;;;17.44;100.00
44131;BME280;29792;48.726;9.248;2023-08-01T08:48:02;95687.53;;;17.47;100.00
44131;BME280;29792;48.726;9.248;2023-08-01T08:50:29;95696.28;;;17.53;100.00
44131;BME280;29792;48.726;9.248;2023-08-01T08:52:55;95702.69;;;17.57;100.00
44131;BME280;29792;48.726;9.248;2023-08-01T08:55:20;95704.84;;;17.60;100.00
44131;BME280;29792;48.726;9.248;2023-08-01T08:57:49;95719.06;;;17.64;100.00
44131;BME280;29792;48.726;9.248;2023-08-01T09:00:17;95707.50;;;17.67;100.00
44131;BME280;29792;48.726;9.248;2023-08-01T09:02:42;95704.50;;;17.70;100.00
44131;BME280;29792;48.726;9.248;2023-08-01T09:05:08;95702.13;;;17.75;100.00
44131;BME280;29792;48.726;9.248;2023-08-01T09:07:35;95696.53;;;17.78;100.00
44131;BME280;29792;48.726;9.248;2023-08-01T09:10:04;95705.72;;;17.80;100.00
44131;BME280;29792;48.726;9.248;2023-08-01T09:12:34;95704.72;;;17.81;100.00
44131;BME280;29792;48.726;9.248;2023-08-01T09:14:59;95705.50;;;17.82;100.00
44131;BME280;29792;48.726;9.248;2023-08-01T09:17:24;95706.50;;;17.81;100.00
44131;BME280;29792;48.726;9.248;2023-08-01T09:19:55;95710.69;;;17.82;100.00
44131;BME280;29792;48.726;9.248;2023-08-01T09:22:21;95704.28;;;17.84;100.00
44131;BME280;29792;48.726;9.248;2023-08-01T09:24:51;95703.28;;;17.85;100.00
44131;BME280;29792;48.726;9.248;2023-08-01T09:27:16;95689.34;;;17.86;100.00
44131;BME280;29792;48.726;9.248;2023-08-01T09:29:41;95700.50;;;17.87;100.00
44131;BME280;29792;48.726;9.248;2023-08-01T09:32:13;95696.94;;;17.88;100.00
44131;BME280;29792;48.726;9.248;2023-08-01T09:34:40;95696.72;;;17.89;100.00
44131;BME280;29792;48.726;9.248;2023-08-01T09:37:06;95697.34;;;17.91;100.00
44131;BME280;29792;48.726;9.248;2023-08-01T09:39:31;95693.94;;;17.91;100.00
44131;BME280;29792;48.726;9.248;2023-08-01T09:41:58;95703.91;;;17.94;100.00
44131;BME280;29792;48.726;9.248;2023-08-01T09:44:25;95703.31;;;17.99;100.00
44131;BME280;29792;48.726;9.248;2023-08-01T09:47:02;95699.31;;;18.03;100.00
44131;BME280;29792;48.726;9.248;2023-08-01T09:49:28;95705.09;;;18.05;100.00
44131;BME280;29792;48.726;9.248;2023-08-01T09:51:54;95704.91;;;18.06;100.00
44131;BME280;29792;48.726;9.248;2023-08-01T09:54:20;95723.41;;;18.10;100.00
44131;BME280;29792;48.726;9.248;2023-08-01T09:56:49;95725.22;;;18.09;100.00
44131;BME280;29792;48.726;9.248;2023-08-01T09:59:20;95729.81;;;18.07;100.00
44131;BME280;29792;48.726;9.248;2023-08-01T10:01:48;95731.59;;;18.07;100.00
44131;BME280;29792;48.726;9.248;2023-08-01T10:04:19;95718.22;;;18.10;100.00
44131;BME280;29792;48.726;9.248;2023-08-01T10:06:49;95725.22;;;18.16;100.00
44131;BME280;29792;48.726;9.248;2023-08-01T10:09:17;95718.81;;;18.18;100.00
44131;BME280;29792;48.726;9.248;2023-08-01T10:11:43;95717.63;;;18.21;100.00
44131;BME280;29792;48.726;9.248;2023-08-01T10:14:09;95724.78;;;18.25;100.00
44131;BME280;29792;48.726;9.248;2023-08-01T10:16:34;95714.63;;;18.30;100.00
44131;BME280;29792;48.726;9.248;2023-08-01T10:19:02;95720.00;;;18.36;100.00
44131;BME280;29792;48.726;9.248;2023-08-01T10:21:28;95719.00;;;18.37;100.00
44131;BME280;29792;48.726;9.248;2023-08-01T10:23:54;95725.34;;;18.41;100.00
44131;BME280;29792;48.726;9.248;2023-08-01T10:26:20;95717.78;;;18.46;100.00
44131;BME280;29792;48.726;9.248;2023-08-01T10:28:52;95718.75;;;18.51;100.00
44131;BME280;29792;48.726;9.248;2023-08-01T10:31:19;95721.75;;;18.55;100.00
44131;BME280;29792;48.726;9.248;2023-08-01T10:33:47;95726.53;;;18.58;100.00
44131;BME280;29792;48.726;9.248;2023-08-01T10:36:20;95728.75;;;18.61;100.00
44131;BME280;29792;48.726;9.248;2023-08-01T10:38:51;95731.31;;;18.67;100.00
44131;BME280;29792;48.726;9.248;2023-08-01T10:43:45;95736.25;;;18.76;100.00
44131;BME280;29792;48.726;9.248;2023-08-01T10:46:10;95734.88;;;18.80;100.00
44131;BME280;29792;48.726;9.248;2023-08-01T10:48:35;95733.44;;;18.84;100.00
44131;BME280;29792;48.726;9.248;2023-08-01T10:51:12;95737.44;;;18.86;100.00
44131;BME280;29792;48.726;9.248;2023-08-01T10:53:38;95741.78;;;18.92;100.00
44131;BME280;29792;48.726;9.248;2023-08-01T10:56:04;95744.56;;;18.97;100.00
44131;BME280;29792;48.726;9.248;2023-08-01T10:58:29;95729.97;;;19.03;100.00
44131;BME280;29792;48.726;9.248;2023-08-01T11:00:58;95724.56;;;19.11;100.00
44131;BME280;29792;48.726;9.248;2023-08-01T11:03:37;95716.72;;;19.18;100.00
44131;BME280;29792;48.726;9.248;2023-08-01T11:06:02;95714.53;;;19.21;100.00
44131;BME280;29792;48.726;9.248;2023-08-01T11:08:36;95755.84;;;19.23;100.00
44131;BME280;29792;48.726;9.248;2023-08-01T11:11:03;95757.63;;;19.22;100.00
44131;BME280;29792;48.726;9.248;2023-08-01T11:13:29;95759.03;;;19.25;100.00
44131;BME280;29792;48.726;9.248;2023-08-01T11:15:54;95757.97;;;19.32;100.00
44131;BME280;29792;48.726;9.248;2023-08-01T11:18:21;95753.50;;;19.46;100.00
44131;BME280;29792;48.726;9.248;2023-08-01T11:20:46;95760.66;;;19.57;100.00
44131;BME280;29792;48.726;9.248;2023-08-01T11:23:12;95759.22;;;19.68;100.00
44131;BME280;29792;48.726;9.248;2023-08-01T11:25:39;95770.34;;;19.75;100.00
44131;BME280;29792;48.726;9.248;2023-08-01T11:28:16;95766.28;;;19.86;100.00
44131;BME280;29792;48.726;9.248;2023-08-01T11:30:42;95776.63;;;19.92;100.00
44131;BME280;29792;48.726;9.248;2023-08-01T11:33:19;95779.19;;;19.99;100.00
44131;BME280;29792;48.726;9.248;2023-08-01T11:35:46;95782.66;;;20.11;100.00
44131;BME280;29792;48.726;9.248;2023-08-01T11:38:11;95781.78;;;20.24;100.00
44131;BME280;29792;48.726;9.248;2023-08-01T11:40:37;95783.50;;;20.36;100.00
44131;BME280;29792;48.726;9.248;2023-08-01T11:43:03;95784.47;;;20.42;100.00
44131;BME280;29792;48.726;9.248;2023-08-01T11:45:29;95786.00;;;20.49;100.00
44131;BME280;29792;48.726;9.248;2023-08-01T11:47:55;95790.72;;;20.59;100.00
44131;BME280;29792;48.726;9.248;2023-08-01T11:50:24;95791.63;;;20.65;100.00
44131;BME280;29792;48.726;9.248;2023-08-01T11:52:50;95789.19;;;20.70;100.00
44131;BME280;29792;48.726;9.248;2023-08-01T11:55:41;95793.75;;;20.74;98.41
44131;BME280;29792;48.726;9.248;2023-08-01T11:58:07;95797.28;;;20.80;97.21
44131;BME280;29792;48.726;9.248;2023-08-01T12:00:32;95789.06;;;20.83;96.15
44131;BME280;29792;48.726;9.248;2023-08-01T12:03:08;95790.78;;;20.89;94.39
44131;BME280;29792;48.726;9.248;2023-08-01T12:05:38;95797.09;;;21.00;95.27
44131;BME280;29792;48.726;9.248;2023-08-01T12:08:13;95789.31;;;21.11;95.51
44131;BME280;29792;48.726;9.248;2023-08-01T12:10:45;95792.59;;;21.25;95.31
44131;BME280;29792;48.726;9.248;2023-08-01T12:13:24;95798.00;;;21.42;95.21
44131;BME280;29792;48.726;9.248;2023-08-01T12:15:52;95802.94;;;21.61;96.18
44131;BME280;29792;48.726;9.248;2023-08-01T12:18:28;95802.53;;;21.76;95.31
44131;BME280;29792;48.726;9.248;2023-08-01T12:20:54;95797.13;;;21.89;91.54
44131;BME280;29792;48.726;9.248;2023-08-01T12:23:19;95805.09;;;21.94;88.13
44131;BME280;29792;48.726;9.248;2023-08-01T12:25:46;95789.00;;;21.97;87.05
44131;BME280;29792;48.726;9.248;2023-08-01T12:28:12;95799.56;;;22.02;86.28
44131;BME280;29792;48.726;9.248;2023-08-01T12:30:39;95802.78;;;22.04;82.87
44131;BME280;29792;48.726;9.248;2023-08-01T12:33:06;95807.84;;;21.99;81.16
44131;BME280;29792;48.726;9.248;2023-08-01T12:35:31;95807.91;;;21.93;79.99
44131;BME280;29792;48.726;9.248;2023-08-01T12:37:57;95810.97;;;21.90;80.30
44131;BME280;29792;48.726;9.248;2023-08-01T12:40:22;95808.03;;;21.86;80.95
44131;BME280;29792;48.726;9.248;2023-08-01T12:42:47;95812.88;;;21.83;79.43
44131;BME280;29792;48.726;9.248;2023-08-01T12:45:12;95796.88;;;21.79;79.11
44131;BME280;29792;48.726;9.248;2023-08-01T12:47:38;95791.91;;;21.78;78.96
44131;BME280;29792;48.726;9.248;2023-08-01T12:50:04;95796.09;;;21.79;78.83
44131;BME280;29792;48.726;9.248;2023-08-01T12:52:30;95784.97;;;21.83;80.52